createdAt,value
2023-03-27T00:00:22.386Z,63.14
2023-03-27T00:02:01.131Z,64.10
2023-03-27T00:03:23.063Z,62.12
2023-03-27T00:05:09.144Z,58.82
2023-03-27T00:06:45.558Z,55.17
2023-03-27T00:08:30.847Z,55.16
2023-03-27T00:09:53.770Z,57.01
2023-03-27T00:11:18.451Z,58.38
2023-03-27T00:12:54.229Z,59.65
2023-03-27T00:14:18.300Z,60.27
2023-03-27T00:16:05.548Z,61.73
2023-03-27T00:17:34.333Z,63.71
2023-03-27T00:19:10.716Z,64.09
2023-03-27T00:20:33.373Z,61.59
2023-03-27T00:21:57.529Z,58.38
2023-03-27T00:23:30.832Z,56.01
2023-03-27T00:25:11.800Z,56.34
2023-03-27T00:26:45.557Z,57.74
2023-03-27T00:28:20.250Z,59.19
2023-03-27T00:29:53.920Z,60.48
2023-03-27T00:31:39.200Z,62.09
2023-03-27T00:33:01.515Z,63.51
2023-03-27T00:34:35.584Z,63.38
2023-03-27T00:36:21.095Z,59.51
2023-03-27T00:37:54.586Z,55.79
2023-03-27T00:39:28.287Z,55.44
2023-03-27T00:41:02.413Z,56.29
2023-03-27T00:42:54.731Z,58.14
2023-03-27T00:44:31.026Z,58.81
2023-03-27T00:46:13.746Z,60.04
2023-03-27T00:47:38.499Z,61.38
2023-03-27T00:49:00.176Z,62.24
2023-03-27T00:50:25.578Z,63.23
2023-03-27T00:51:59.342Z,63.27
2023-03-27T00:53:34.752Z,60.26
2023-03-27T00:55:20.329Z,56.24
2023-03-27T00:57:14.167Z,55.15
2023-03-27T00:58:38.262Z,56.40
2023-03-27T01:00:13.375Z,57.67
2023-03-27T01:01:58.518Z,58.85
2023-03-27T01:03:35.629Z,59.90
2023-03-27T01:05:21.524Z,61.09
2023-03-27T01:07:07.625Z,61.79
2023-03-27T01:08:41.518Z,62.69
2023-03-27T01:10:14.995Z,64.06
2023-03-27T01:11:48.776Z,62.10
2023-03-27T01:13:35.201Z,58.46
2023-03-27T01:15:20.127Z,55.44
2023-03-27T01:16:56.525Z,55.75
2023-03-27T01:18:30.207Z,57.17
2023-03-27T01:20:14.865Z,58.21
2023-03-27T01:21:59.883Z,59.88
2023-03-27T01:23:59.131Z,61.08
2023-03-27T01:25:14.287Z,62.06
2023-03-27T01:27:08.689Z,63.26
2023-03-27T01:28:43.175Z,63.79
2023-03-27T01:30:16.698Z,61.20
2023-03-27T01:32:02.536Z,57.06
2023-03-27T01:33:51.119Z,55.42
2023-03-27T01:35:37.002Z,56.13
2023-03-27T01:37:22.895Z,57.76
2023-03-27T01:39:09.444Z,59.10
2023-03-27T01:40:54.704Z,60.60
2023-03-27T01:42:26.765Z,61.66
2023-03-27T01:43:48.605Z,62.76
2023-03-27T01:45:33.740Z,64.21
2023-03-27T01:47:09.630Z,62.26
2023-03-27T01:48:43.144Z,58.44
2023-03-27T01:50:08.136Z,55.84
2023-03-27T01:51:41.264Z,56.09
2023-03-27T01:53:16.831Z,56.80
2023-03-27T01:55:10.280Z,58.16
2023-03-27T01:56:51.685Z,59.78
2023-03-27T01:58:40.912Z,61.09
2023-03-27T02:00:22.730Z,62.11
2023-03-27T02:01:56.430Z,63.93
2023-03-27T02:03:32.423Z,63.28
2023-03-27T02:05:17.396Z,59.90
2023-03-27T02:07:03.029Z,56.04
2023-03-27T02:08:39.215Z,55.75
2023-03-27T02:10:10.926Z,56.96
2023-03-27T02:11:38.434Z,58.48
2023-03-27T02:13:18.995Z,60.13
2023-03-27T02:14:44.520Z,61.51
2023-03-27T02:16:11.035Z,62.81
2023-03-27T02:17:51.276Z,64.21
2023-03-27T02:19:33.816Z,62.34
2023-03-27T02:21:07.049Z,58.77
2023-03-27T02:22:40.757Z,56.15
2023-03-27T02:24:06.077Z,56.02
2023-03-27T02:25:51.378Z,57.38
2023-03-27T02:27:33.997Z,59.20
2023-03-27T02:29:14.570Z,60.74
2023-03-27T02:30:41.147Z,62.05
2023-03-27T02:32:07.251Z,63.60
2023-03-27T02:33:42.210Z,64.26
2023-03-27T02:35:17.702Z,62.04
2023-03-27T02:36:53.353Z,59.41
2023-03-27T02:38:30.289Z,56.37
2023-03-27T02:39:54.064Z,56.31
2023-03-27T02:41:28.025Z,57.85
2023-03-27T02:43:18.207Z,59.88
2023-03-27T02:44:59.981Z,61.54
2023-03-27T02:46:54.782Z,64.01
2023-03-27T02:48:36.296Z,64.70
2023-03-27T02:50:18.868Z,62.31
2023-03-27T02:51:52.483Z,59.01
2023-03-27T02:53:25.889Z,56.73
2023-03-27T02:55:04.800Z,57.23
2023-03-27T02:56:50.793Z,58.79
2023-03-27T02:58:50.972Z,61.35
2023-03-27T03:00:50.350Z,64.05
2023-03-27T03:03:10.916Z,64.04
2023-03-27T03:05:03.951Z,60.87
2023-03-27T03:06:53.958Z,57.71
2023-03-27T03:08:42.126Z,57.01
2023-03-27T03:10:05.541Z,58.55
2023-03-27T03:11:56.481Z,60.35
2023-03-27T03:13:52.051Z,62.92
2023-03-27T03:15:45.588Z,64.94
2023-03-27T03:17:19.337Z,62.72
2023-03-27T03:19:10.006Z,60.08
2023-03-27T03:20:59.095Z,57.13
2023-03-27T03:22:36.311Z,57.31
2023-03-27T03:24:13.890Z,59.09
2023-03-27T03:26:08.096Z,61.20
2023-03-27T03:28:16.903Z,64.30
2023-03-27T03:30:11.111Z,65.36
2023-03-27T03:32:16.033Z,62.35
2023-03-27T03:33:57.595Z,59.15
2023-03-27T03:35:43.427Z,56.99
2023-03-27T03:37:30.680Z,58.12
2023-03-27T03:39:06.109Z,60.01
2023-03-27T03:40:48.130Z,61.90
2023-03-27T03:42:23.846Z,64.86
2023-03-27T03:44:10.753Z,64.68
2023-03-27T03:45:45.561Z,61.80
2023-03-27T03:47:12.694Z,59.40
2023-03-27T03:49:05.843Z,56.99
2023-03-27T03:50:39.774Z,57.55
2023-03-27T03:52:25.521Z,59.23
2023-03-27T03:54:11.440Z,61.56
2023-03-27T03:56:06.748Z,64.06
2023-03-27T03:57:43.216Z,64.72
2023-03-27T03:59:19.340Z,62.36
2023-03-27T04:01:02.890Z,59.38
2023-03-27T04:02:44.456Z,56.96
2023-03-27T04:04:40.740Z,57.30
2023-03-27T04:06:07.592Z,59.26
2023-03-27T04:07:43.609Z,61.40
2023-03-27T04:09:24.593Z,63.59
2023-03-27T04:11:20.931Z,65.20
2023-03-27T04:13:17.448Z,62.44
2023-03-27T04:15:05.580Z,59.62
2023-03-27T04:16:46.571Z,56.87
2023-03-27T04:18:26.591Z,57.35
2023-03-27T04:20:04.411Z,59.13
2023-03-27T04:21:58.231Z,61.58
2023-03-27T04:23:43.596Z,64.08
2023-03-27T04:25:34.740Z,65.19
2023-03-27T04:27:21.067Z,62.44
2023-03-27T04:29:13.454Z,59.38
2023-03-27T04:31:39.568Z,56.91
2023-03-27T04:33:47.505Z,58.68
2023-03-27T04:35:41.353Z,61.35
2023-03-27T04:37:24.478Z,64.17
2023-03-27T04:39:42.603Z,64.67
2023-03-27T04:41:18.235Z,61.86
2023-03-27T04:43:01.289Z,59.19
2023-03-27T04:44:37.636Z,56.83
2023-03-27T04:46:06.769Z,57.64
2023-03-27T04:48:00.948Z,59.71
2023-03-27T04:50:02.397Z,62.13
2023-03-27T04:51:52.917Z,65.37
2023-03-27T04:53:41.914Z,63.79
2023-03-27T04:55:28.434Z,60.54
2023-03-27T04:57:13.601Z,57.57
2023-03-27T04:58:58.711Z,56.84
2023-03-27T05:00:32.664Z,58.34
2023-03-27T05:02:28.089Z,60.41
2023-03-27T05:04:18.015Z,62.05
2023-03-27T05:06:37.432Z,64.70
2023-03-27T05:08:23.701Z,62.44
2023-03-27T05:10:15.593Z,59.09
2023-03-27T05:11:55.549Z,56.53
2023-03-27T05:13:49.320Z,56.94
2023-03-27T05:15:40.387Z,58.96
2023-03-27T05:17:27.387Z,61.14
2023-03-27T05:19:03.659Z,63.47
2023-03-27T05:20:50.668Z,65.02
2023-03-27T05:22:35.583Z,62.52
2023-03-27T05:24:15.428Z,59.08
2023-03-27T05:26:00.195Z,56.43
2023-03-27T05:27:54.721Z,56.70
2023-03-27T05:29:47.216Z,58.31
2023-03-27T05:31:22.297Z,60.50
2023-03-27T05:33:40.090Z,62.89
2023-03-27T05:35:23.654Z,64.84
2023-03-27T05:36:58.956Z,63.00
2023-03-27T05:38:45.597Z,59.86
2023-03-27T05:40:23.122Z,56.93
2023-03-27T05:42:04.430Z,56.50
2023-03-27T05:43:51.154Z,58.03
2023-03-27T05:45:37.732Z,59.88
2023-03-27T05:47:25.962Z,61.66
2023-03-27T05:49:02.205Z,63.25
2023-03-27T05:50:47.475Z,64.55
2023-03-27T05:52:41.824Z,61.45
2023-03-27T05:54:27.513Z,58.08
2023-03-27T05:56:07.726Z,56.11
2023-03-27T05:57:44.986Z,56.99
2023-03-27T05:59:20.236Z,58.78
2023-03-27T06:01:14.842Z,60.44
2023-03-27T06:03:02.420Z,62.43
2023-03-27T06:05:06.753Z,64.97
2023-03-27T06:06:44.277Z,63.08
2023-03-27T06:08:26.160Z,60.20
2023-03-27T06:10:00.444Z,56.42
2023-03-27T06:11:39.831Z,55.82
2023-03-27T06:13:25.469Z,57.17
2023-03-27T06:15:16.300Z,59.33
2023-03-27T06:17:06.735Z,61.46
2023-03-27T06:18:55.696Z,63.99
2023-03-27T06:20:22.916Z,64.33
2023-03-27T06:22:10.152Z,61.63
2023-03-27T06:23:43.904Z,58.20
2023-03-27T06:25:09.392Z,56.27
2023-03-27T06:26:50.189Z,56.22
2023-03-27T06:28:23.922Z,57.77
2023-03-27T06:30:09.443Z,59.37
2023-03-27T06:31:44.796Z,61.21
2023-03-27T06:33:43.744Z,63.52
2023-03-27T06:35:20.176Z,64.77
2023-03-27T06:36:48.691Z,62.55
2023-03-27T06:38:34.841Z,59.34
2023-03-27T06:40:22.750Z,55.90
2023-03-27T06:42:05.674Z,55.88
2023-03-27T06:44:18.953Z,58.58
2023-03-27T06:46:05.288Z,60.61
2023-03-27T06:47:55.993Z,62.52
2023-03-27T06:49:47.538Z,64.94
2023-03-27T06:51:36.156Z,63.22
2023-03-27T06:54:52.445Z,56.38
2023-03-27T06:56:18.918Z,55.99
2023-03-27T06:58:13.459Z,57.46
2023-03-27T07:00:01.634Z,59.42
2023-03-27T07:01:44.629Z,61.85
2023-03-27T07:04:02.429Z,64.34
2023-03-27T07:06:39.658Z,62.51
2023-03-27T07:08:29.217Z,57.75
2023-03-27T07:10:05.149Z,55.55
2023-03-27T07:11:39.694Z,56.24
2023-03-27T07:13:16.450Z,57.58
2023-03-27T07:14:51.980Z,59.57
2023-03-27T07:16:45.568Z,61.32
2023-03-27T07:18:31.169Z,62.88
2023-03-27T07:20:12.706Z,64.76
2023-03-27T07:21:57.720Z,62.13
2023-03-27T07:23:31.702Z,58.01
2023-03-27T07:24:59.005Z,55.64
2023-03-27T07:26:34.381Z,55.92
2023-03-27T07:28:21.873Z,57.45
2023-03-27T07:30:09.350Z,59.38
2023-03-27T07:32:07.181Z,60.87
2023-03-27T07:34:08.917Z,63.20
2023-03-27T07:35:49.691Z,64.06
2023-03-27T07:37:50.074Z,61.03
2023-03-27T07:39:51.732Z,56.90
2023-03-27T07:41:33.569Z,55.70
2023-03-27T07:43:07.027Z,56.72
2023-03-27T07:44:52.563Z,58.39
2023-03-27T07:46:46.147Z,60.09
2023-03-27T07:48:22.509Z,61.36
2023-03-27T07:50:16.203Z,62.65
2023-03-27T07:52:09.762Z,64.10
2023-03-27T07:54:09.728Z,61.28
2023-03-27T07:55:54.315Z,57.53
2023-03-27T07:57:49.677Z,54.95
2023-03-27T07:59:44.281Z,56.31
2023-03-27T08:01:12.676Z,57.98
2023-03-27T08:02:46.487Z,59.30
2023-03-27T08:04:32.538Z,60.68
2023-03-27T08:06:02.700Z,61.80
2023-03-27T08:07:57.761Z,62.68
2023-03-27T08:09:41.058Z,64.39
2023-03-27T08:11:30.657Z,62.28
2023-03-27T08:13:12.755Z,57.44
2023-03-27T08:14:54.135Z,55.07
2023-03-27T08:16:32.946Z,55.67
2023-03-27T08:18:08.982Z,56.80
2023-03-27T08:20:02.632Z,57.74
2023-03-27T08:21:49.334Z,59.06
2023-03-27T08:23:42.974Z,60.59
2023-03-27T08:25:43.766Z,61.79
2023-03-27T08:27:07.567Z,62.77
2023-03-27T08:28:56.076Z,63.70
2023-03-27T08:30:42.278Z,60.67
2023-03-27T08:32:27.582Z,56.36
2023-03-27T08:34:03.450Z,54.53
2023-03-27T08:35:53.882Z,55.15
2023-03-27T08:37:29.509Z,56.94
2023-03-27T08:39:45.775Z,58.36
2023-03-27T08:41:33.040Z,59.55
2023-03-27T08:43:16.794Z,60.68
2023-03-27T08:45:05.807Z,61.27
2023-03-27T08:46:56.038Z,61.66
2023-03-27T08:48:41.764Z,61.97
2023-03-27T08:50:27.693Z,63.17
2023-03-27T08:52:09.999Z,62.56
2023-03-27T08:53:52.481Z,59.26
2023-03-27T08:55:35.858Z,55.07
2023-03-27T08:57:28.322Z,54.25
2023-03-27T08:59:17.493Z,54.99
2023-03-27T09:01:03.965Z,56.42
2023-03-27T09:02:57.694Z,58.01
2023-03-27T09:04:53.521Z,59.38
2023-03-27T09:06:45.802Z,60.06
2023-03-27T09:08:19.548Z,60.49
2023-03-27T09:10:15.398Z,61.48
2023-03-27T09:12:00.369Z,62.25
2023-03-27T09:13:45.107Z,63.15
2023-03-27T09:15:30.889Z,60.54
2023-03-27T09:16:54.440Z,55.75
2023-03-27T09:18:36.550Z,52.39
2023-03-27T09:20:10.840Z,53.01
2023-03-27T09:21:36.094Z,53.88
2023-03-27T09:23:14.892Z,54.69
2023-03-27T09:25:53.833Z,55.61
2023-03-27T09:27:55.773Z,56.55
2023-03-27T09:29:38.488Z,57.11
2023-03-27T09:31:32.483Z,56.91
2023-03-27T09:33:19.912Z,57.70
2023-03-27T09:34:55.691Z,58.69
2023-03-27T09:36:39.880Z,59.00
2023-03-27T09:38:34.332Z,59.26
2023-03-27T09:40:23.547Z,59.55
2023-03-27T09:42:10.339Z,59.86
2023-03-27T09:43:53.235Z,60.34
2023-03-27T09:45:38.999Z,60.84
2023-03-27T09:47:14.179Z,61.40
2023-03-27T09:49:02.000Z,62.16
2023-03-27T09:50:54.131Z,62.31
2023-03-27T09:52:54.565Z,63.55
2023-03-27T09:55:00.060Z,61.45
2023-03-27T09:56:41.147Z,56.44
2023-03-27T09:58:18.628Z,53.07
2023-03-27T10:00:12.461Z,53.25
2023-03-27T10:01:36.403Z,53.75
2023-03-27T10:03:44.206Z,55.01
2023-03-27T10:05:30.229Z,56.26
2023-03-27T10:07:12.857Z,57.39
2023-03-27T10:09:18.256Z,58.73
2023-03-27T10:10:53.716Z,59.11
2023-03-27T10:13:25.622Z,60.19
2023-03-27T10:15:04.265Z,60.82
2023-03-27T10:16:54.085Z,61.66
2023-03-27T10:18:33.111Z,61.98
2023-03-27T10:20:05.473Z,62.38
2023-03-27T10:21:52.077Z,63.83
2023-03-27T10:23:29.692Z,62.39
2023-03-27T10:25:14.914Z,58.56
2023-03-27T10:26:58.766Z,54.87
2023-03-27T10:28:44.956Z,54.97
2023-03-27T10:30:13.462Z,55.84
2023-03-27T10:31:54.596Z,57.52
2023-03-27T10:33:38.467Z,59.22
2023-03-27T10:35:12.644Z,60.34
2023-03-27T10:37:06.057Z,61.49
2023-03-27T10:38:46.931Z,62.22
2023-03-27T10:41:03.770Z,63.90
2023-03-27T10:42:51.571Z,61.46
2023-03-27T10:44:17.610Z,57.71
2023-03-27T10:45:44.325Z,54.79
2023-03-27T10:47:28.423Z,55.04
2023-03-27T10:49:11.659Z,55.91
2023-03-27T10:50:33.800Z,57.53
2023-03-27T10:52:07.486Z,58.33
2023-03-27T10:54:03.792Z,59.44
2023-03-27T10:55:56.538Z,60.32
2023-03-27T10:57:21.339Z,61.18
2023-03-27T10:59:06.467Z,61.68
2023-03-27T11:00:41.317Z,62.33
2023-03-27T11:02:06.873Z,63.33
2023-03-27T11:03:50.967Z,62.09
2023-03-27T11:05:36.741Z,57.41
2023-03-27T11:07:18.227Z,54.09
2023-03-27T11:08:52.960Z,54.04
2023-03-27T11:10:22.359Z,54.28
2023-03-27T11:11:58.231Z,55.49
2023-03-27T11:13:32.199Z,56.36
2023-03-27T11:15:23.256Z,56.98
2023-03-27T11:17:16.570Z,57.07
2023-03-27T11:19:08.348Z,57.72
2023-03-27T11:20:59.489Z,58.33
2023-03-27T11:22:38.661Z,58.34
2023-03-27T11:24:03.927Z,58.93
2023-03-27T11:26:01.634Z,59.45
2023-03-27T11:27:39.821Z,59.82
2023-03-27T11:29:09.262Z,60.34
2023-03-27T11:30:55.978Z,61.11
2023-03-27T11:32:21.280Z,61.59
2023-03-27T11:34:13.353Z,62.36
2023-03-27T11:36:05.799Z,63.92
2023-03-27T11:37:57.079Z,62.14
2023-03-27T11:39:49.085Z,57.04
2023-03-27T11:41:30.060Z,53.96
2023-03-27T11:42:55.589Z,54.13
2023-03-27T11:44:19.808Z,55.36
2023-03-27T11:46:53.312Z,57.32
2023-03-27T11:48:27.238Z,57.34
2023-03-27T11:50:13.180Z,57.59
2023-03-27T11:51:38.058Z,57.40
2023-03-27T11:53:12.193Z,57.84
2023-03-27T11:55:23.877Z,58.12
2023-03-27T11:56:57.336Z,58.33
2023-03-27T11:59:27.764Z,58.55
2023-03-27T12:01:09.936Z,58.66
2023-03-27T12:02:45.593Z,59.17
2023-03-27T12:04:34.371Z,59.23
2023-03-27T12:06:11.280Z,59.34
2023-03-27T12:07:48.059Z,59.69
2023-03-27T12:09:25.790Z,59.55
2023-03-27T12:11:20.325Z,60.07
2023-03-27T12:13:11.584Z,60.11
2023-03-27T12:14:57.295Z,58.54
2023-03-27T12:16:31.533Z,57.89
2023-03-27T12:18:19.007Z,57.44
2023-03-27T12:20:15.131Z,57.89
2023-03-27T12:22:21.134Z,57.96
2023-03-27T12:23:58.754Z,58.43
2023-03-27T12:25:53.093Z,57.45
2023-03-27T12:27:52.058Z,57.15
2023-03-27T12:29:59.650Z,56.06
2023-03-27T12:31:33.201Z,55.97
2023-03-27T12:33:10.891Z,56.23
2023-03-27T12:34:52.021Z,56.74
2023-03-27T12:36:24.234Z,56.21
2023-03-27T12:38:06.873Z,56.53
2023-03-27T12:39:29.364Z,56.46
2023-03-27T12:41:16.191Z,56.49
2023-03-27T12:43:45.174Z,56.45
2023-03-27T12:45:14.250Z,57.22
2023-03-27T12:46:45.576Z,57.12
2023-03-27T12:48:15.971Z,57.12
2023-03-27T12:49:59.807Z,57.16
2023-03-27T12:51:37.850Z,57.33
2023-03-27T12:53:01.267Z,57.50
2023-03-27T12:54:32.573Z,57.68
2023-03-27T12:56:02.142Z,57.52
2023-03-27T12:57:37.921Z,57.20
2023-03-27T12:59:12.002Z,57.42
2023-03-27T13:01:01.615Z,57.52
2023-03-27T13:03:17.156Z,57.45
2023-03-27T13:04:50.943Z,57.32
2023-03-27T13:06:28.280Z,57.33
2023-03-27T13:08:10.074Z,57.31
2023-03-27T13:09:56.255Z,57.76
2023-03-27T13:11:37.106Z,57.85
2023-03-27T13:13:15.653Z,58.07
2023-03-27T13:14:45.390Z,58.03
2023-03-27T13:16:25.312Z,57.76
2023-03-27T13:18:01.842Z,57.65
2023-03-27T13:19:42.941Z,58.10
2023-03-27T13:21:14.903Z,57.85
2023-03-27T13:22:57.251Z,57.89
2023-03-27T13:24:22.046Z,58.29
2023-03-27T13:25:46.402Z,58.57
2023-03-27T13:27:08.286Z,58.17
2023-03-27T13:28:31.253Z,57.96
2023-03-27T13:30:24.720Z,58.00
2023-03-27T13:32:03.165Z,58.03
2023-03-27T13:34:18.449Z,58.09
2023-03-27T13:35:53.496Z,57.97
2023-03-27T13:37:17.559Z,57.59
2023-03-27T13:38:44.894Z,57.48
2023-03-27T13:40:10.241Z,57.32
2023-03-27T13:42:05.668Z,57.64
2023-03-27T13:43:42.716Z,57.81
2023-03-27T13:45:24.661Z,57.93
2023-03-27T13:47:21.080Z,57.16
2023-03-27T13:49:03.438Z,57.02
2023-03-27T13:50:39.269Z,57.39
2023-03-27T13:52:04.125Z,57.68
2023-03-27T13:53:25.961Z,57.95
2023-03-27T13:55:27.926Z,58.11
2023-03-27T13:57:25.833Z,58.51
2023-03-27T13:59:14.038Z,58.73
2023-03-27T14:00:49.789Z,59.02
2023-03-27T14:02:12.749Z,59.39
2023-03-27T14:03:45.313Z,59.18
2023-03-27T14:05:19.324Z,59.42
2023-03-27T14:06:49.095Z,59.74
2023-03-27T14:08:13.154Z,59.48
2023-03-27T14:10:04.250Z,59.15
2023-03-27T14:11:36.085Z,59.40
2023-03-27T14:13:00.720Z,59.67
2023-03-27T14:14:36.297Z,59.84
2023-03-27T14:15:58.334Z,59.80
2023-03-27T14:17:24.880Z,59.55
2023-03-27T14:18:48.390Z,59.60
2023-03-27T14:20:11.516Z,59.41
2023-03-27T14:21:38.828Z,59.32
2023-03-27T14:23:03.622Z,59.39
2023-03-27T14:24:34.581Z,58.76
2023-03-27T14:26:03.498Z,58.65
2023-03-27T14:27:28.030Z,58.71
2023-03-27T14:28:51.727Z,58.82
2023-03-27T14:30:21.667Z,58.75
2023-03-27T14:31:59.485Z,58.51
2023-03-27T14:33:24.673Z,58.41
2023-03-27T14:35:02.680Z,58.21
2023-03-27T14:36:30.135Z,57.71
2023-03-27T14:37:53.835Z,57.67
2023-03-27T14:39:19.831Z,57.74
2023-03-27T14:40:47.457Z,57.65
2023-03-27T14:42:10.548Z,57.78
2023-03-27T14:43:32.356Z,57.89
2023-03-27T14:44:54.753Z,57.84
2023-03-27T14:46:27.712Z,57.65
2023-03-27T14:47:50.242Z,57.68
2023-03-27T14:49:12.759Z,57.76
2023-03-27T14:50:38.256Z,57.95
2023-03-27T14:52:01.348Z,58.48
2023-03-27T14:54:04.337Z,58.66
2023-03-27T14:55:34.475Z,58.66
2023-03-27T14:57:15.161Z,58.60
2023-03-27T14:58:43.908Z,58.87
2023-03-27T15:00:06.976Z,58.81
2023-03-27T15:01:32.085Z,58.82
2023-03-27T15:02:57.207Z,59.09
2023-03-27T15:04:19.576Z,59.55
2023-03-27T15:05:43.529Z,59.86
2023-03-27T15:07:22.232Z,59.98
2023-03-27T15:09:04.136Z,59.75
2023-03-27T15:11:39.366Z,59.68
2023-03-27T15:13:17.275Z,59.92
2023-03-27T15:15:06.189Z,60.09
2023-03-27T15:16:52.133Z,60.03
2023-03-27T15:18:39.556Z,60.21
2023-03-27T15:20:27.332Z,60.27
2023-03-27T15:22:01.623Z,59.68
2023-03-27T15:23:43.449Z,59.76
2023-03-27T15:25:32.605Z,60.10
2023-03-27T15:27:15.628Z,59.83
2023-03-27T15:29:01.763Z,59.67
2023-03-27T15:30:56.719Z,59.61
2023-03-27T15:32:50.554Z,59.32
2023-03-27T15:34:26.496Z,59.34
2023-03-27T15:35:48.548Z,59.62
2023-03-27T15:37:11.087Z,59.34
2023-03-27T15:38:51.307Z,59.18
2023-03-27T15:40:16.208Z,58.91
2023-03-27T15:41:37.913Z,58.88
2023-03-27T15:43:23.099Z,58.19
2023-03-27T15:44:56.543Z,57.60
2023-03-27T15:46:35.963Z,57.08
2023-03-27T15:48:21.768Z,56.77
2023-03-27T15:50:02.291Z,56.53
2023-03-27T15:51:48.169Z,56.23
2023-03-27T15:53:10.046Z,56.31
2023-03-27T15:54:43.593Z,56.26
2023-03-27T15:56:17.442Z,55.73
2023-03-27T15:57:40.523Z,55.69
2023-03-27T15:59:02.435Z,56.00
2023-03-27T16:00:28.830Z,56.27
2023-03-27T16:01:54.210Z,56.70
2023-03-27T16:03:17.027Z,56.59
2023-03-27T16:04:39.107Z,56.42
2023-03-27T16:06:01.334Z,56.48
2023-03-27T16:07:23.503Z,56.48
2023-03-27T16:08:48.979Z,55.85
2023-03-27T16:10:26.494Z,55.44
2023-03-27T16:12:02.090Z,55.00
2023-03-27T16:13:47.080Z,54.82
2023-03-27T16:15:16.390Z,54.68
2023-03-27T16:17:05.167Z,54.97
2023-03-27T16:18:36.802Z,55.06
2023-03-27T16:20:07.920Z,54.48
2023-03-27T16:21:41.441Z,54.63
2023-03-27T16:23:04.288Z,54.75
2023-03-27T16:24:26.946Z,54.82
2023-03-27T16:25:48.802Z,54.78
2023-03-27T16:27:11.104Z,55.04
2023-03-27T16:28:35.621Z,55.38
2023-03-27T16:29:57.989Z,55.29
2023-03-27T16:31:19.909Z,55.40
2023-03-27T16:32:49.758Z,55.56
2023-03-27T16:34:11.937Z,56.29
2023-03-27T16:35:45.641Z,57.29
2023-03-27T16:37:09.826Z,58.68
2023-03-27T16:38:33.622Z,59.92
2023-03-27T16:39:55.745Z,60.89
2023-03-27T16:41:20.266Z,61.76
2023-03-27T16:42:53.603Z,62.36
2023-03-27T16:44:15.753Z,63.87
2023-03-27T16:45:38.050Z,63.79
2023-03-27T16:47:23.434Z,60.86
2023-03-27T16:48:45.619Z,56.33
2023-03-27T16:50:11.768Z,53.90
2023-03-27T16:51:33.920Z,54.00
2023-03-27T16:53:07.806Z,54.32
2023-03-27T16:54:41.993Z,55.08
2023-03-27T16:56:05.105Z,56.04
2023-03-27T16:57:27.413Z,56.97
2023-03-27T16:59:03.357Z,57.67
2023-03-27T17:00:35.089Z,58.63
2023-03-27T17:02:12.036Z,59.31
2023-03-27T17:03:45.974Z,60.05
2023-03-27T17:05:07.914Z,60.62
2023-03-27T17:06:32.062Z,60.98
2023-03-27T17:08:02.047Z,61.50
2023-03-27T17:09:24.425Z,62.07
2023-03-27T17:10:56.616Z,62.39
2023-03-27T17:12:28.637Z,63.31
2023-03-27T17:13:50.650Z,64.10
2023-03-27T17:15:12.744Z,61.52
2023-03-27T17:16:34.358Z,57.84
2023-03-27T17:17:56.295Z,54.57
2023-03-27T17:19:23.469Z,54.13
2023-03-27T17:20:46.358Z,54.65
2023-03-27T17:22:08.704Z,55.83
2023-03-27T17:23:31.516Z,56.87
2023-03-27T17:24:56.715Z,57.81
2023-03-27T17:26:19.948Z,58.71
2023-03-27T17:27:43.705Z,59.54
2023-03-27T17:29:06.128Z,60.18
2023-03-27T17:30:38.130Z,60.98
2023-03-27T17:32:02.274Z,61.54
2023-03-27T17:33:24.564Z,62.17
2023-03-27T17:34:46.383Z,63.09
2023-03-27T17:36:08.763Z,64.15
2023-03-27T17:37:30.742Z,62.69
2023-03-27T17:38:53.278Z,59.25
2023-03-27T17:40:15.267Z,55.60
2023-03-27T17:41:37.218Z,54.28
2023-03-27T17:43:01.467Z,54.57
2023-03-27T17:44:23.012Z,55.48
2023-03-27T17:45:52.657Z,56.62
2023-03-27T17:47:15.580Z,57.65
2023-03-27T17:48:39.697Z,58.35
2023-03-27T17:50:01.925Z,59.15
2023-03-27T17:51:37.023Z,59.88
2023-03-27T17:53:22.663Z,60.67
2023-03-27T17:54:46.591Z,61.38
2023-03-27T17:56:27.485Z,61.97
2023-03-27T17:58:13.917Z,62.44
2023-03-27T17:59:56.115Z,63.77
2023-03-27T18:01:29.689Z,61.99
2023-03-27T18:02:59.603Z,58.12
2023-03-27T18:04:24.308Z,54.51
2023-03-27T18:06:05.437Z,53.64
2023-03-27T18:07:39.335Z,54.50
2023-03-27T18:09:20.482Z,55.43
2023-03-27T18:10:50.503Z,56.61
2023-03-27T18:12:17.344Z,57.62
2023-03-27T18:14:01.678Z,58.28
2023-03-27T18:15:45.730Z,59.23
2023-03-27T18:17:27.688Z,60.12
2023-03-27T18:18:51.047Z,60.55
2023-03-27T18:20:45.625Z,61.17
2023-03-27T18:22:19.926Z,62.03
2023-03-27T18:24:11.639Z,62.82
2023-03-27T18:25:48.221Z,63.62
2023-03-27T18:27:22.423Z,60.58
2023-03-27T18:29:16.609Z,55.87
2023-03-27T18:30:42.582Z,53.91
2023-03-27T18:32:28.555Z,54.41
2023-03-27T18:33:58.208Z,55.48
2023-03-27T18:35:33.744Z,56.31
2023-03-27T18:37:11.135Z,57.52
2023-03-27T18:38:56.160Z,58.28
2023-03-27T18:40:21.015Z,59.06
2023-03-27T18:42:02.285Z,59.77
2023-03-27T18:43:45.611Z,60.45
2023-03-27T18:45:19.141Z,61.19
2023-03-27T18:46:43.618Z,61.64
2023-03-27T18:48:06.069Z,62.01
2023-03-27T18:49:39.517Z,62.38
2023-03-27T18:53:24.257Z,61.88
2023-03-27T18:55:07.621Z,57.76
2023-03-27T18:56:41.054Z,53.57
2023-03-27T18:58:26.616Z,53.38
2023-03-27T19:00:09.620Z,54.48
2023-03-27T19:01:34.958Z,55.75
2023-03-27T19:03:00.253Z,56.74
2023-03-27T19:04:34.105Z,57.64
2023-03-27T19:06:07.425Z,58.71
2023-03-27T19:07:48.431Z,59.41
2023-03-27T19:09:40.799Z,60.13
2023-03-27T19:11:18.352Z,61.12
2023-03-27T19:13:09.006Z,61.56
2023-03-27T19:15:00.443Z,62.28
2023-03-27T19:17:13.439Z,63.65
2023-03-27T19:19:01.932Z,62.51
2023-03-27T19:20:42.380Z,58.23
2023-03-27T19:22:23.383Z,54.46
2023-03-27T19:23:54.723Z,53.93
2023-03-27T19:25:19.710Z,54.63
2023-03-27T19:26:41.628Z,55.54
2023-03-27T19:28:04.112Z,56.60
2023-03-27T19:29:25.955Z,57.52
2023-03-27T19:30:48.406Z,58.40
2023-03-27T19:32:10.296Z,59.22
2023-03-27T19:33:34.688Z,60.15
2023-03-27T19:34:59.639Z,60.76
2023-03-27T19:36:21.809Z,61.42
2023-03-27T19:37:43.441Z,61.97
2023-03-27T19:39:19.458Z,62.94
2023-03-27T19:40:42.968Z,64.04
2023-03-27T19:42:05.165Z,62.44
2023-03-27T19:43:29.926Z,59.09
2023-03-27T19:44:51.790Z,55.38
2023-03-27T19:46:16.135Z,53.92
2023-03-27T19:47:38.539Z,54.36
2023-03-27T19:49:00.955Z,55.17
2023-03-27T19:50:41.920Z,56.53
2023-03-27T19:52:16.847Z,57.69
2023-03-27T19:53:46.284Z,58.70
2023-03-27T19:55:19.865Z,59.60
2023-03-27T19:56:46.646Z,60.48
2023-03-27T19:58:11.119Z,61.27
2023-03-27T19:59:32.875Z,61.98
2023-03-27T20:00:54.858Z,62.56
2023-03-27T20:02:17.319Z,63.98
2023-03-27T20:03:59.431Z,63.32
2023-03-27T20:05:53.601Z,58.99
2023-03-27T20:07:29.530Z,54.57
2023-03-27T20:09:10.428Z,54.18
2023-03-27T20:10:53.609Z,55.10
2023-03-27T20:12:33.618Z,56.35
2023-03-27T20:14:18.583Z,57.76
2023-03-27T20:15:42.258Z,58.79
2023-03-27T20:17:27.964Z,59.75
2023-03-27T20:19:16.602Z,60.61
2023-03-27T20:21:02.046Z,61.49
2023-03-27T20:22:57.079Z,62.28
2023-03-27T20:24:28.823Z,63.91
2023-03-27T20:26:06.791Z,63.41
2023-03-27T20:28:02.632Z,59.81
2023-03-27T20:29:56.018Z,54.89
2023-03-27T20:31:30.517Z,53.85
2023-03-27T20:33:16.014Z,54.92
2023-03-27T20:35:20.673Z,56.26
2023-03-27T20:37:11.963Z,57.80
2023-03-27T20:39:14.611Z,59.10
2023-03-27T20:41:08.282Z,59.97
2023-03-27T20:42:50.588Z,60.65
2023-03-27T20:44:44.305Z,61.41
2023-03-27T20:46:29.641Z,62.15
2023-03-27T20:48:14.863Z,62.43
2023-03-27T20:49:48.199Z,63.88
2023-03-27T20:51:17.705Z,62.88
2023-03-27T20:52:39.476Z,59.69
2023-03-27T20:54:01.771Z,55.76
2023-03-27T20:55:33.625Z,53.72
2023-03-27T20:57:00.447Z,53.72
2023-03-27T20:58:22.402Z,54.52
2023-03-27T20:59:46.259Z,55.47
2023-03-27T21:01:09.410Z,56.36
2023-03-27T21:02:31.310Z,57.20
2023-03-27T21:03:53.658Z,58.02
2023-03-27T21:05:15.914Z,58.65
2023-03-27T21:06:37.403Z,59.30
2023-03-27T21:07:59.851Z,59.92
2023-03-27T21:09:21.786Z,60.28
2023-03-27T21:10:43.518Z,60.63
2023-03-27T21:12:08.199Z,61.14
2023-03-27T21:13:30.298Z,61.52
2023-03-27T21:14:52.025Z,61.81
2023-03-27T21:16:21.417Z,62.13
2023-03-27T21:17:50.612Z,62.35
2023-03-27T21:19:12.879Z,62.71
2023-03-27T21:20:46.209Z,63.66